createdAt,value
2022-09-03T08:40:25.635Z,953.67
2022-09-03T08:42:52.007Z,953.62
2022-09-03T08:45:18.364Z,953.57
2022-09-03T08:47:44.736Z,953.56
2022-09-03T08:50:11.145Z,953.56
2022-09-03T08:52:37.546Z,953.54
2022-09-03T08:55:03.904Z,953.57
2022-09-03T08:57:30.277Z,953.56
2022-09-03T08:59:56.688Z,953.64
2022-09-03T09:02:23.178Z,953.59
2022-09-03T09:04:49.445Z,953.66
2022-09-03T09:07:15.895Z,953.57
2022-09-03T09:09:42.289Z,953.60
2022-09-03T09:12:08.753Z,953.63
2022-09-03T09:14:35.135Z,953.62
2022-09-03T09:17:01.501Z,953.63
2022-09-03T09:19:27.923Z,953.56
2022-09-03T09:21:54.362Z,953.61
2022-09-03T09:24:20.752Z,953.59
2022-09-03T09:26:47.154Z,953.66
2022-09-03T09:29:13.517Z,953.65
2022-09-03T09:31:40.009Z,953.68
2022-09-03T09:34:06.281Z,953.68
2022-09-03T09:36:32.651Z,953.70
2022-09-03T09:38:59.113Z,953.67
2022-09-03T09:41:29.650Z,953.67
2022-09-03T09:43:51.858Z,953.56
2022-09-03T09:46:18.286Z,953.61
2022-09-03T09:48:44.660Z,953.59
2022-09-03T09:51:11.071Z,953.63
2022-09-03T09:53:37.507Z,953.61
2022-09-03T09:56:03.898Z,953.63
2022-09-03T09:58:30.373Z,953.69
2022-09-03T10:00:56.799Z,953.72
2022-09-03T10:03:23.164Z,953.75
2022-09-03T10:05:49.674Z,953.71
2022-09-03T10:08:16.045Z,953.72
2022-09-03T10:10:42.438Z,953.68
2022-09-03T10:13:08.804Z,953.73
2022-09-03T10:15:35.368Z,953.72
2022-09-03T10:18:01.734Z,953.69
2022-09-03T10:20:28.163Z,953.64
2022-09-03T10:22:56.941Z,953.68
2022-09-03T10:25:20.987Z,953.68
2022-09-03T10:27:47.470Z,953.62
2022-09-03T10:30:14.021Z,953.63
2022-09-03T10:32:42.763Z,953.61
2022-09-03T10:35:06.805Z,953.61
2022-09-03T10:37:33.211Z,953.61
2022-09-03T10:39:59.618Z,953.68
2022-09-03T10:42:25.966Z,953.59
2022-09-03T10:44:52.334Z,953.63
2022-09-03T10:47:18.715Z,953.57
2022-09-03T10:49:45.146Z,953.64
2022-09-03T10:52:11.592Z,953.66
2022-09-03T10:54:38.031Z,953.61
2022-09-03T10:57:04.409Z,953.68
2022-09-03T10:59:30.777Z,953.62
2022-09-03T11:01:57.139Z,953.57
2022-09-03T11:04:23.658Z,953.58
2022-09-03T11:06:50.089Z,953.55
2022-09-03T11:09:16.524Z,953.60
2022-09-03T11:11:42.927Z,953.53
2022-09-03T11:14:09.390Z,953.59
2022-09-03T11:16:35.757Z,953.63
2022-09-03T11:19:02.256Z,953.66
2022-09-03T11:21:28.643Z,953.65
2022-09-03T11:23:55.415Z,953.64
2022-09-03T11:26:21.544Z,953.60
2022-09-03T11:28:47.988Z,953.58
2022-09-03T11:31:14.396Z,953.62
2022-09-03T11:33:40.735Z,953.62
2022-09-03T11:36:07.184Z,953.59
2022-09-03T11:38:33.575Z,953.60
2022-09-03T11:40:59.974Z,953.60
2022-09-03T11:43:26.340Z,953.55
2022-09-03T11:45:52.860Z,953.55
2022-09-03T11:48:19.249Z,953.51
2022-09-03T11:50:45.679Z,953.58
2022-09-03T11:53:12.065Z,953.56
2022-09-03T11:55:43.599Z,953.62
2022-09-03T11:58:04.858Z,953.53
2022-09-03T12:00:31.243Z,953.55
2022-09-03T12:02:59.169Z,953.57
2022-09-03T12:05:24.179Z,953.53
2022-09-03T12:07:50.593Z,953.42
2022-09-03T12:10:16.959Z,953.44
2022-09-03T12:12:43.480Z,953.39
2022-09-03T12:15:09.887Z,953.35
2022-09-03T12:17:36.301Z,953.31
2022-09-03T12:20:02.671Z,953.28
2022-09-03T12:22:29.104Z,953.28
2022-09-03T12:24:55.529Z,953.28
2022-09-03T12:27:21.965Z,953.30
2022-09-03T12:29:48.508Z,953.28
2022-09-03T12:32:14.941Z,953.30
2022-09-03T12:34:41.371Z,953.22
2022-09-03T12:37:07.742Z,953.25
2022-09-03T12:42:00.787Z,953.32
2022-09-03T12:44:27.207Z,953.29
2022-09-03T12:47:33.479Z,953.22
2022-09-03T12:49:35.181Z,953.23
2022-09-03T12:51:50.014Z,953.21
2022-09-03T12:54:12.787Z,953.15
2022-09-03T12:56:42.614Z,953.04
2022-09-03T12:59:05.541Z,953.04
2022-09-03T13:01:32.012Z,953.06
2022-09-03T13:03:58.298Z,953.04
2022-09-03T13:06:24.802Z,952.91
2022-09-03T13:08:51.042Z,953.00
2022-09-03T13:11:17.409Z,952.95
2022-09-03T13:13:43.796Z,952.95
2022-09-03T13:16:10.219Z,953.04
2022-09-03T13:18:36.583Z,952.99
2022-09-03T13:21:02.950Z,953.00
2022-09-03T13:23:29.340Z,952.90
2022-09-03T13:25:55.710Z,952.86
2022-09-03T13:28:23.057Z,952.85
2022-09-03T13:30:49.507Z,952.84
2022-09-03T13:33:17.089Z,952.76
2022-09-03T13:35:43.465Z,952.83
2022-09-03T13:38:09.817Z,952.84
2022-09-03T13:40:36.562Z,952.74
2022-09-03T13:43:02.976Z,952.78
2022-09-03T13:45:29.351Z,952.76
2022-09-03T13:47:55.716Z,952.73
2022-09-03T13:50:22.119Z,952.74
2022-09-03T13:52:48.504Z,952.68
2022-09-03T13:55:14.889Z,952.67
2022-09-03T13:57:41.325Z,952.56
2022-09-03T14:00:07.754Z,952.68
2022-09-03T14:02:34.222Z,952.71
2022-09-03T14:05:00.621Z,952.75
2022-09-03T14:07:27.061Z,952.75
2022-09-03T14:09:53.422Z,952.84
2022-09-03T14:12:19.827Z,952.73
2022-09-03T14:14:46.193Z,952.74
2022-09-03T14:17:12.551Z,952.76
2022-09-03T14:19:39.020Z,952.74
2022-09-03T14:22:05.443Z,952.81
2022-09-03T14:24:31.825Z,952.82
2022-09-03T14:26:58.190Z,952.75
2022-09-03T14:29:24.649Z,952.78
2022-09-03T14:31:51.107Z,952.83
2022-09-03T14:34:17.508Z,952.81
2022-09-03T14:36:43.953Z,952.82
2022-09-03T14:39:10.362Z,952.74
2022-09-03T14:41:36.818Z,952.69
2022-09-03T14:44:03.184Z,952.69
2022-09-03T14:46:29.605Z,952.71
2022-09-03T14:48:56.015Z,952.75
2022-09-03T14:51:22.391Z,952.79
2022-09-03T14:53:48.768Z,952.81
2022-09-03T14:56:15.207Z,952.80
2022-09-03T14:58:41.605Z,952.84
2022-09-03T15:01:08.024Z,952.82
2022-09-03T15:03:34.404Z,952.80
2022-09-03T15:06:00.802Z,952.81
2022-09-03T15:08:27.173Z,952.83
2022-09-03T15:10:56.699Z,952.88
2022-09-03T15:13:19.936Z,952.91
2022-09-03T15:15:46.294Z,952.92
2022-09-03T15:18:12.657Z,952.94
2022-09-03T15:20:39.038Z,952.99
2022-09-03T15:23:05.417Z,952.97
2022-09-03T15:25:31.820Z,953.04
2022-09-03T15:27:58.163Z,952.99
2022-09-03T15:30:24.531Z,952.98
2022-09-03T15:32:50.922Z,952.97
2022-09-03T15:35:18.160Z,952.98
2022-09-03T15:37:43.665Z,953.04
2022-09-03T15:40:10.046Z,953.02
2022-09-03T15:42:36.447Z,953.07
2022-09-03T15:45:02.815Z,953.15
2022-09-03T15:47:29.185Z,953.21
2022-09-03T15:49:55.607Z,953.16
2022-09-03T15:52:21.996Z,953.18
2022-09-03T15:54:48.381Z,953.26
2022-09-03T15:57:14.765Z,953.23
2022-09-03T15:59:41.141Z,953.24
2022-09-03T16:02:07.536Z,953.28
2022-09-03T16:04:33.902Z,953.25
2022-09-03T16:07:00.334Z,953.24
2022-09-03T16:09:26.732Z,953.23
2022-09-03T16:11:53.098Z,953.25
2022-09-03T16:14:19.460Z,953.36
2022-09-03T16:16:46.018Z,953.32
2022-09-03T16:19:12.343Z,953.32
2022-09-03T16:21:38.706Z,953.45
2022-09-03T16:24:05.094Z,953.48
2022-09-03T16:26:31.461Z,953.58
2022-09-03T16:28:57.925Z,953.53
2022-09-03T16:31:24.412Z,953.64
2022-09-03T16:33:50.911Z,953.64
2022-09-03T16:36:17.317Z,953.63
2022-09-03T16:38:43.691Z,953.72
2022-09-03T16:41:10.064Z,953.74
2022-09-03T16:43:41.135Z,953.70
2022-09-03T16:46:02.921Z,953.71
2022-09-03T16:48:29.763Z,953.71
2022-09-03T16:50:56.234Z,953.71
2022-09-03T16:53:22.681Z,953.79
2022-09-03T16:55:49.094Z,953.80
2022-09-03T16:58:15.471Z,953.71
2022-09-03T17:00:41.934Z,953.71
2022-09-03T17:03:08.210Z,953.69
2022-09-03T17:05:34.621Z,953.79
2022-09-03T17:08:01.014Z,953.94
2022-09-03T17:10:27.397Z,953.94
2022-09-03T17:12:53.783Z,953.98
2022-09-03T17:15:20.168Z,953.97
2022-09-03T17:17:46.540Z,954.06
2022-09-03T17:20:12.921Z,954.13
2022-09-03T17:22:39.422Z,954.00
2022-09-03T17:25:05.805Z,954.05
2022-09-03T17:27:32.227Z,954.06
2022-09-03T17:29:58.716Z,954.09
2022-09-03T17:32:25.077Z,954.16
2022-09-03T17:34:51.435Z,954.26
2022-09-03T17:37:17.860Z,954.31
2022-09-03T17:39:44.349Z,954.36
2022-09-03T17:42:10.638Z,954.42
2022-09-03T17:44:37.092Z,954.42
2022-09-03T17:47:03.485Z,954.47
2022-09-03T17:49:29.847Z,954.46
2022-09-03T17:51:56.304Z,954.49
2022-09-03T17:54:22.667Z,954.52
2022-09-03T17:56:49.127Z,954.55
2022-09-03T17:59:15.513Z,954.59
2022-09-03T18:01:41.954Z,954.63
2022-09-03T18:04:08.312Z,954.67
2022-09-03T18:06:34.688Z,954.61
2022-09-03T18:09:01.170Z,954.74
2022-09-03T18:11:27.599Z,954.68
2022-09-03T18:13:53.959Z,954.70
2022-09-03T18:16:20.390Z,954.76
2022-09-03T18:18:46.793Z,954.81
2022-09-03T18:21:25.151Z,954.84
2022-09-03T18:23:39.613Z,954.77
2022-09-03T18:26:05.982Z,954.82
2022-09-03T18:28:32.350Z,954.85
2022-09-03T18:30:58.785Z,954.83
2022-09-03T18:33:25.297Z,954.80
2022-09-03T18:35:51.551Z,954.81
2022-09-03T18:38:17.992Z,954.81
2022-09-03T18:40:44.367Z,954.84
2022-09-03T18:43:10.746Z,954.87
2022-09-03T18:46:07.884Z,954.93
2022-09-03T18:48:08.409Z,954.93
2022-09-03T18:50:29.913Z,954.98
2022-09-03T18:52:56.280Z,954.97
2022-09-03T18:55:22.785Z,954.93
2022-09-03T18:57:49.162Z,954.99
2022-09-03T19:00:15.546Z,954.89
2022-09-03T19:02:42.035Z,954.83
2022-09-03T19:05:08.318Z,954.86
2022-09-03T19:07:34.734Z,954.91
2022-09-03T19:10:01.128Z,954.96
2022-09-03T19:12:27.498Z,955.07
2022-09-03T19:14:53.867Z,955.04
2022-09-03T19:17:20.413Z,955.10
2022-09-03T19:19:46.706Z,955.08
2022-09-03T19:22:13.073Z,955.09
2022-09-03T19:24:39.465Z,955.10
2022-09-03T19:27:18.101Z,955.14
2022-09-03T19:29:32.263Z,955.21
2022-09-03T19:31:58.630Z,955.27
2022-09-03T19:34:25.025Z,955.31
2022-09-03T19:36:51.424Z,955.18
2022-09-03T19:39:17.953Z,955.24
2022-09-03T19:41:44.193Z,955.27
2022-09-03T19:44:10.599Z,955.30
2022-09-03T19:46:36.988Z,955.27
2022-09-03T19:49:03.384Z,955.30
2022-09-03T19:51:29.782Z,955.37
2022-09-03T19:53:56.194Z,955.34
2022-09-03T19:56:22.569Z,955.40
2022-09-03T19:58:48.937Z,955.43
2022-09-03T20:01:15.348Z,955.39
2022-09-03T20:03:41.725Z,955.36
2022-09-03T20:06:11.252Z,955.39
2022-09-03T20:08:34.530Z,955.40
2022-09-03T20:11:00.911Z,955.52
2022-09-03T20:13:27.270Z,955.46
2022-09-03T20:15:53.742Z,955.43
2022-09-03T20:18:20.118Z,955.41
2022-09-03T20:20:46.506Z,955.43
2022-09-03T20:23:12.919Z,955.39
2022-09-03T20:25:39.274Z,955.40
2022-09-03T20:28:05.675Z,955.52
2022-09-03T20:30:32.038Z,955.53
2022-09-03T20:32:58.455Z,955.41
2022-09-03T20:35:24.906Z,955.49
2022-09-03T20:37:51.291Z,955.58
2022-09-03T20:40:17.681Z,955.61
2022-09-03T20:42:44.052Z,955.54
2022-09-03T20:45:10.441Z,955.52
2022-09-03T20:47:36.857Z,955.62
2022-09-03T20:50:03.239Z,955.58
2022-09-03T20:52:29.722Z,955.61
2022-09-03T20:54:56.111Z,955.71
2022-09-03T20:57:22.589Z,955.68
2022-09-03T20:59:48.953Z,955.63
2022-09-03T21:02:15.369Z,955.63
2022-09-03T21:04:41.721Z,955.67
2022-09-03T21:07:08.085Z,955.67
2022-09-03T21:09:34.451Z,955.68
2022-09-03T21:12:00.879Z,955.70
2022-09-03T21:14:27.261Z,955.65
2022-09-03T21:16:53.641Z,955.64
2022-09-03T21:19:20.033Z,955.61
2022-09-03T21:21:46.508Z,955.65
2022-09-03T21:24:12.942Z,955.55
2022-09-03T21:26:39.333Z,955.56
2022-09-03T21:29:05.719Z,955.59
2022-09-03T21:31:32.090Z,955.60
2022-09-03T21:33:58.469Z,955.60
2022-09-03T21:36:24.880Z,955.53
2022-09-03T21:38:51.235Z,955.49
2022-09-03T21:41:17.628Z,955.58
2022-09-03T21:43:43.995Z,955.62
2022-09-03T21:46:10.411Z,955.56
2022-09-03T21:48:36.747Z,955.55
2022-09-03T21:51:03.146Z,955.53
2022-09-03T21:53:29.550Z,955.55
2022-09-03T21:55:55.922Z,955.56
2022-09-03T21:58:22.324Z,955.63
2022-09-03T22:00:48.689Z,955.58
2022-09-03T22:03:15.078Z,955.60
2022-09-03T22:05:41.442Z,955.63
2022-09-03T22:08:07.918Z,955.59
2022-09-03T22:10:34.344Z,955.54
2022-09-03T22:13:00.781Z,955.58
2022-09-03T22:15:27.167Z,955.61
2022-09-03T22:17:53.526Z,955.65
2022-09-03T22:20:19.896Z,955.68
2022-09-03T22:22:46.262Z,955.63
2022-09-03T22:25:12.744Z,955.71
2022-09-03T22:27:39.117Z,955.74
2022-09-03T22:30:05.525Z,955.76
2022-09-03T22:32:31.909Z,955.79
2022-09-03T22:34:58.296Z,955.79
2022-09-03T22:37:24.678Z,955.75
2022-09-03T22:39:51.066Z,955.71
2022-09-03T22:42:17.440Z,955.77
2022-09-03T22:44:43.905Z,955.82
2022-09-03T22:47:10.267Z,955.80
2022-09-03T22:49:36.669Z,955.77
2022-09-03T22:52:03.064Z,955.77
2022-09-03T22:54:29.533Z,955.77
2022-09-03T22:56:55.911Z,955.71
2022-09-03T22:59:22.404Z,955.72
2022-09-03T23:01:48.765Z,955.70
2022-09-03T23:04:15.145Z,955.66
2022-09-03T23:06:41.496Z,955.70
2022-09-03T23:09:07.926Z,955.59
2022-09-03T23:11:34.358Z,955.64
2022-09-03T23:14:00.725Z,955.71
2022-09-03T23:16:27.135Z,955.69
2022-09-03T23:18:53.496Z,955.72
2022-09-03T23:21:19.856Z,955.82
2022-09-03T23:23:46.220Z,955.88
2022-09-03T23:26:12.625Z,955.93
2022-09-03T23:28:39.081Z,955.85
2022-09-03T23:31:05.461Z,955.82
2022-09-03T23:33:31.947Z,955.93
2022-09-03T23:35:58.303Z,955.89
2022-09-03T23:38:24.832Z,955.85
2022-09-03T23:40:51.077Z,955.83
2022-09-03T23:43:17.468Z,955.89
2022-09-03T23:45:43.939Z,955.87
2022-09-03T23:48:10.270Z,955.97
2022-09-03T23:50:36.627Z,955.99
2022-09-03T23:53:03.011Z,956.03
2022-09-03T23:55:29.419Z,956.02
2022-09-03T23:57:55.787Z,956.01
